Carlos Reyes

Recruteur - Oviedo
2 Sept 2027
Jeudi
Processus

Personnalité

Adaptabilité (18) Ambition (16) Controverse (17) Loyauté (11) Pression (7) Professionnalisme (8) Sportivité (16) Tempérament (10)

Profil

Style d'entraînement Démocratique
Diplôme National B
Détermination 4
Gestion des joueurs 6
Motivation 9
Discipline 8
Satisfaction professionnelle
100%
Fatigue
0%
Rôle Recruteur
Salaire 17.4K p/s
Contrat 14.03.2030

Performance

Comportement Bon
Efficacité de l'entraînement
44%
Développement des joueurs
35%
Prévention des blessures
65%
Mise en place tactique
40%

Événements récents

A participé à une réunion de recrutement maintenant
A participé à une réunion de recrutement maintenant
A participé à une réunion de recrutement 7j
A participé à une réunion de recrutement 7j
A participé à une réunion de recrutement 7j
A recommandé une cible de transfert 7j
A participé à une réunion de recrutement 14j
A recommandé une cible de transfert 14j

Suivi en cours

138
Joueur Club Statut Capacité Confiance Observé Dernière observation Dernier vote
Raúl Sánchez Castellón Actif 121 / 105 72% 1 14.06.2027 Approuver
Gonçalo Oliveira Benfica Actif 108 / 104 40% 2 28.05.2027 -
Darryl Bakola Padova Actif 111 / 111 40% 3 28.05.2027 -
Marc Bernal Real Sociedad Perdu 148 / 153 40% 1 28.05.2027 -
Louis Leroux FC Nantes Actif 132 / 119 40% 3 27.05.2027 -
Kazunari Kita Real Sociedad Actif 93 / 106 40% 4 27.05.2027 Observer
Simone Kosijer Triestina Actif 91 / 114 40% 1 27.05.2027 -
Christ Inao Oulaï Fiorentina Actif 129 / 145 40% 4 26.05.2027 -
Dylan Lawlor Cardiff City Actif 109 / 111 40% 2 26.05.2027 -
Lucas Høgsberg RC Strasbourg Actif 135 / 133 40% 2 26.05.2027 -
Simón Pinto Palestino Actif 96 / 108 40% 1 25.05.2027 -
Ibrahim Maza Bayer Leverkusen Actif 151 / 143 40% 5 24.05.2027 -
Khalis Merah Toulouse FC Actif 123 / 126 40% 2 24.05.2027 -
Kevin Vazquez Cruz Azul Actif 146 / 154 40% 12 20.05.2027 -
Matías Gómez Granada Actif 113 / 122 40% 6 20.05.2027 -
Bernardo Lima Porto Actif 92 / 105 40% 2 18.05.2027 -
José Pachuca Puebla Actif 114 / 103 40% 2 18.05.2027 -
Tiago Freitas Benfica Actif 108 / 116 40% 1 18.05.2027 -
Juan Giménez Celta Actif 121 / 134 40% 2 17.05.2027 -
Daniel Vernattus Metalist Actif 92 / 79 40% 1 17.05.2027 -
Matvey Kislyak CSKA Moscow Actif 125 / 149 40% 3 16.05.2027 -
Yusi Alavés Actif 133 / 147 40% 5 15.05.2027 -
Sascha Britschgi Padova Actif 113 / 129 40% 3 15.05.2027 -
Caleb Yirenkyi Coventry City Actif 139 / 129 40% 2 14.05.2027 -
Johan Manzambi Newcastle United Actif 139 / 141 40% 1 14.05.2027 -
Leonardo Mendicino Bari Actif 113 / 129 40% 1 14.05.2027 -
Joel McGregor Swindon Town Actif 96 / 106 40% 3 09.05.2027 -
Daniel Kelly Oxford United Actif 108 / 119 40% 1 09.05.2027 -
Noah Nartey Olympique Lyonnais Actif 128 / 140 40% 2 03.05.2027 -
Josh King Chelsea Actif 142 / 138 40% 2 23.04.2027 -
Cheveyo Tsawa Club Brugge Actif 120 / 122 40% 1 23.04.2027 -
Yussif Saidu Zaragoza Actif 116 / 125 40% 3 22.04.2027 -
Jan Bürger Gillingham Actif 111 / 108 40% 2 22.04.2027 -
David Ozoh Derby County Actif 114 / 115 40% 3 20.04.2027 -
Toni Tamarit Alverca Actif 114 / 131 40% 2 20.04.2027 -
Riley Owen Trento Actif 106 / 112 40% 2 18.04.2027 -
Samuele di Benedetto Bari Actif 112 / 106 40% 1 18.04.2027 -
Daniel Costa Sporting CP Actif 97 / 101 40% 1 15.04.2027 -
Ronwen Phiri Platinum Stars Actif 106 / 108 40% 2 10.04.2027 -
Surprise Manthosi Polokwane City Actif 88 / 91 40% 1 08.04.2027 -
João Simões Sporting CP Actif 136 / 138 40% 3 06.04.2027 -
Lucas Agazzi Defensor Sporting Actif 125 / 129 40% 3 05.04.2027 -
Christos Mouzakitis Hull City Actif 128 / 129 40% 2 05.04.2027 -
Jack Hinshelwood Brighton Actif 138 / 161 40% 1 05.04.2027 -
Zaïd BafdilI Sporting CP Actif 92 / 100 40% 1 02.04.2027 -
Adam Bakoune Ospitaletto Actif 92 / 90 40% 1 01.04.2027 -
Izan Merino Málaga Actif 131 / 125 40% 1 25.03.2027 -
Victor Froholdt Porto Actif 146 / 167 40% 1 22.03.2027 -
Cemran Dansin Orlando Pirates Actif 104 / 117 40% 1 20.03.2027 -
David Valencia Alianza Petrolera Actif 121 / 138 40% 1 17.03.2027 -
Jofre Torrents Ajax Actif 121 / 133 40% 2 14.03.2027 -
James Dornelly Peterborough United Actif 96 / 105 40% 2 07.03.2027 -
Pape Diong Westerlo Actif 108 / 110 40% 1 07.03.2027 -
Martim Cunha Porto Actif 93 / 102 40% 1 02.03.2027 -
Ernie Weaver AFC Wimbledon Actif 102 / 122 40% 1 02.03.2027 -
Hamish Douglas Grimsby Town Actif 89 / 90 40% 1 01.03.2027 -
Lautaro Vargas Leganés Actif 127 / 118 40% 1 12.01.2027 -
Antoni Milambo Brentford Actif 135 / 154 40% 1 12.01.2027 -
Aidan Morris Middlesbrough Actif 134 / 126 40% 1 30.12.2026 -
Juan Pablo Freytes Fluminense Actif 121 / 123 40% 1 30.12.2026 -
Ilay Camara Anderlecht Actif 136 / 130 40% 2 28.12.2026 -
Florentino Luís Ipswich Town Actif 143 / 152 40% 1 28.12.2026 -
Gorka Gorosabel Real Sociedad Actif 101 / 126 67% 1 26.12.2026 Observer
Fran Beltrán Girona Actif 149 / 134 40% 3 24.12.2026 -
Callum Doyle Wrexham Actif 125 / 136 40% 1 24.12.2026 -
Mfundo Vilakazi Kaizer Chiefs Actif 117 / 128 40% 1 22.12.2026 -
Senny Mayulu Paris Saint-Germain Actif 151 / 150 40% 1 20.12.2026 -
Tristan Degreef Anderlecht Actif 116 / 121 40% 2 19.12.2026 -
Jesús Areso Athletic Bilbao Actif 135 / 134 40% 1 17.12.2026 -
Arnau Martínez Valencia Actif 148 / 152 40% 1 17.12.2026 -
Daijiro Chirino Almería Actif 137 / 145 40% 1 17.12.2026 -
Welington Southampton Actif 123 / 132 40% 3 15.12.2026 -
Bobby Thomas Coventry City Actif 142 / 121 40% 1 15.12.2026 -
Samuel Lucero Defensa y Justicia Actif 109 / 116 40% 2 14.12.2026 -
Assane Diao Lazio Actif 154 / 161 40% 3 14.12.2026 -
Lander Astiazarán Real Sociedad Actif 94 / 105 40% 1 14.12.2026 -
Pol Lozano Espanyol Actif 143 / 129 40% 3 13.12.2026 -
Adam Wharton Crystal Palace Actif 143 / 166 40% 2 13.12.2026 -
Caylan Vickers Burton Albion Actif 111 / 107 40% 3 12.12.2026 -
Alejandro Francés Girona Actif 137 / 128 40% 1 10.12.2026 -
Noah Sadiki Sunderland Actif 140 / 136 40% 1 10.12.2026 -
Adrià Altimira Deportivo La Coruña Actif 137 / 115 40% 1 08.12.2026 -
Richard Ledezma Guadalajara Actif 143 / 127 40% 1 08.12.2026 -
Arda Güler Real Madrid Actif 155 / 153 40% 1 07.12.2026 -
Percy Jali Free State Stars Actif 80 / 82 40% 1 05.12.2026 -
Jesús Rodríguez Como Actif 133 / 131 40% 1 02.12.2026 -
Diogo Guzmán Montevideo City Torque Actif 113 / 125 40% 1 30.11.2026 -
James Cardona La Equidad Actif 148 / 137 40% 3 28.11.2026 -
Kevin Álvarez Club America Actif 124 / 146 40% 1 28.11.2026 -
Rayan Aït-Nouri Manchester City Actif 146 / 135 40% 1 26.11.2026 -
Malick Fofana Sunderland Actif 147 / 154 40% 3 23.11.2026 -
Ilaix Moriba Celta Actif 149 / 151 40% 2 22.11.2026 -
Boubacar Kamara Aston Villa Actif 158 / 153 40% 1 22.11.2026 -
Carlos Romero Villarreal Actif 149 / 156 40% 1 22.11.2026 -
Giovanni Cantizano Rosario Central Actif 102 / 122 40% 3 20.11.2026 -
Diego Gaitán Maipú Actif 101 / 113 40% 2 20.11.2026 -
Javier Mena Portimonense Actif 122 / 115 40% 1 19.11.2026 -
Franco Minerva Platense Actif 120 / 126 40% 1 19.11.2026 -
Ethan Williams Peterborough United Actif 115 / 106 40% 1 18.11.2026 -
Tyler Adams Bournemouth Actif 151 / 166 40% 1 18.11.2026 -
Aníbal Moreno River Plate Actif 140 / 127 40% 4 13.11.2026 -
Rico Lewis Manchester City Actif 143 / 156 40% 2 13.11.2026 -
Mika Mármol Feyenoord Actif 133 / 125 40% 1 13.11.2026 -
Ryan Sessegnon Fulham Actif 150 / 146 40% 1 13.11.2026 -
Oscar Schwartau Norwich City Actif 115 / 115 40% 1 13.11.2026 -
Jonás Luna Santa Clara Actif 117 / 127 40% 1 13.11.2026 -
Nico O'Reilly Manchester City Actif 157 / 145 40% 2 12.11.2026 -
Ayrton Costa Boca Juniors Actif 123 / 140 40% 1 10.11.2026 -
Shea Charles Southampton Actif 137 / 136 40% 1 10.11.2026 -
Logan Costa Villarreal Actif 142 / 150 40% 1 10.11.2026 -
Valentino Acuña Newell's Old Boys Actif 118 / 121 40% 1 08.11.2026 -
Ousmane Diomande Nottingham Forest Actif 157 / 145 40% 1 06.11.2026 -
Israel Reyes CSKA Moscow Actif 131 / 157 40% 1 06.11.2026 -
Quinten Timber Crystal Palace Actif 141 / 142 40% 1 04.11.2026 -
Pedro Porro Tottenham Actif 151 / 157 40% 1 04.11.2026 -
Leo Castledine Middlesbrough Actif 127 / 129 40% 1 03.11.2026 -
Sidiki Chérif Coventry City Actif 130 / 116 40% 1 03.11.2026 -
Anton Stach Leeds United Actif 149 / 143 40% 2 02.11.2026 -
Gavi Barcelona Actif 159 / 153 40% 1 02.11.2026 -
Ramiro Hernandes Belgrano Actif 114 / 135 40% 1 31.10.2026 -
Tomás Aranda Boca Juniors Actif 106 / 113 40% 2 30.10.2026 -
Luca Regiardo Newell's Old Boys Actif 97 / 108 40% 1 28.10.2026 -
Mateo Aguiar Defensa y Justicia Actif 118 / 118 40% 1 25.10.2026 -
Didier Dawson Envigado Actif 110 / 103 40% 1 21.10.2026 -
Nazareno Kihm Ferro Carril Oeste Actif 115 / 117 40% 1 15.10.2026 -
Ignacio Perruzzi San Lorenzo Actif 117 / 138 40% 1 14.10.2026 -
Rodrigo Huescas FC Copenhagen Actif 138 / 126 40% 1 13.10.2026 -
Fidel Ambríz Monterrey Actif 135 / 144 40% 1 13.10.2026 -
Yehor Yarmoliuk Brentford Actif 154 / 158 40% 1 12.10.2026 -
Víctor Guzmán Monterrey Actif 122 / 134 40% 1 09.10.2026 -
Tilman Palacios America de Cali Actif 119 / 127 40% 1 07.10.2026 -
Sergio Gómez Real Sociedad Actif 148 / 154 40% 1 11.09.2026 -
Ethan Galbraith Swansea City Actif 127 / 136 40% 1 08.09.2026 -
Dani Vivian Athletic Bilbao Actif 151 / 159 40% 1 08.09.2026 -
Natan Betis Actif 138 / 149 40% 1 07.09.2026 -
Nathan Collins Brentford Actif 145 / 136 40% 1 07.09.2026 -
Lucas Pyziak Vélez Actif 98 / 113 40% 1 05.08.2026 -
Ángel Sepúlveda Guadalajara Actif 135 / 128 40% 1 01.08.2026 -